sensor_id;sensor_type;location;lat;lon;timestamp;temperature;humidity
68215;DHT22;55036;52.138;5.236;2022-08-21T00:02:01;16.80;70.90
68215;DHT22;55036;52.138;5.236;2022-08-21T00:04:28;16.80;70.90
68215;DHT22;55036;52.138;5.236;2022-08-21T00:06:56;16.80;71.00
68215;DHT22;55036;52.138;5.236;2022-08-21T00:09:23;16.70;71.10
68215;DHT22;55036;52.138;5.236;2022-08-21T00:11:50;16.70;71.00
68215;DHT22;55036;52.138;5.236;2022-08-21T00:14:17;16.70;71.00
68215;DHT22;55036;52.138;5.236;2022-08-21T00:16:43;16.70;71.00
68215;DHT22;55036;52.138;5.236;2022-08-21T00:19:10;16.70;71.10
68215;DHT22;55036;52.138;5.236;2022-08-21T00:21:38;16.70;71.20
68215;DHT22;55036;52.138;5.236;2022-08-21T00:24:05;16.70;71.20
68215;DHT22;55036;52.138;5.236;2022-08-21T00:26:33;16.60;71.30
68215;DHT22;55036;52.138;5.236;2022-08-21T00:29:02;16.60;71.20
68215;DHT22;55036;52.138;5.236;2022-08-21T00:31:29;16.60;72.30
68215;DHT22;55036;52.138;5.236;2022-08-21T00:33:56;16.50;71.30
68215;DHT22;55036;52.138;5.236;2022-08-21T00:36:26;16.50;71.30
68215;DHT22;55036;52.138;5.236;2022-08-21T00:38:53;16.50;71.40
68215;DHT22;55036;52.138;5.236;2022-08-21T00:41:20;16.50;71.70
68215;DHT22;55036;52.138;5.236;2022-08-21T00:44:08;16.50;71.50
68215;DHT22;55036;52.138;5.236;2022-08-21T00:46:36;16.50;71.70
68215;DHT22;55036;52.138;5.236;2022-08-21T00:49:05;16.50;71.70
68215;DHT22;55036;52.138;5.236;2022-08-21T00:51:39;16.50;71.80
68215;DHT22;55036;52.138;5.236;2022-08-21T00:54:08;16.40;71.80
68215;DHT22;55036;52.138;5.236;2022-08-21T00:56:46;16.40;71.90
68215;DHT22;55036;52.138;5.236;2022-08-21T00:59:16;16.40;72.00
68215;DHT22;55036;52.138;5.236;2022-08-21T01:01:44;16.40;72.00
68215;DHT22;55036;52.138;5.236;2022-08-21T01:04:11;16.30;72.00
68215;DHT22;55036;52.138;5.236;2022-08-21T01:06:38;16.30;72.10
68215;DHT22;55036;52.138;5.236;2022-08-21T01:09:06;16.30;72.10
68215;DHT22;55036;52.138;5.236;2022-08-21T01:11:33;16.30;72.10
68215;DHT22;55036;52.138;5.236;2022-08-21T01:13:59;16.30;72.10
68215;DHT22;55036;52.138;5.236;2022-08-21T01:16:27;16.20;72.10
68215;DHT22;55036;52.138;5.236;2022-08-21T01:18:54;16.20;72.20
68215;DHT22;55036;52.138;5.236;2022-08-21T01:21:25;16.20;72.20
68215;DHT22;55036;52.138;5.236;2022-08-21T01:23:55;16.20;72.50
68215;DHT22;55036;52.138;5.236;2022-08-21T01:26:29;16.20;72.50
68215;DHT22;55036;52.138;5.236;2022-08-21T01:31:32;16.20;72.60
68215;DHT22;55036;52.138;5.236;2022-08-21T01:33:59;16.20;72.70
68215;DHT22;55036;52.138;5.236;2022-08-21T01:36:27;16.20;72.70
68215;DHT22;55036;52.138;5.236;2022-08-21T01:38:54;16.20;72.80
68215;DHT22;55036;52.138;5.236;2022-08-21T01:41:20;16.20;72.90
68215;DHT22;55036;52.138;5.236;2022-08-21T01:43:47;16.20;72.80
68215;DHT22;55036;52.138;5.236;2022-08-21T01:46:14;16.10;72.80
68215;DHT22;55036;52.138;5.236;2022-08-21T01:48:41;16.10;72.90
68215;DHT22;55036;52.138;5.236;2022-08-21T01:51:09;16.10;72.80
68215;DHT22;55036;52.138;5.236;2022-08-21T01:53:36;16.10;72.90
68215;DHT22;55036;52.138;5.236;2022-08-21T01:56:06;16.10;72.80
68215;DHT22;55036;52.138;5.236;2022-08-21T01:58:39;16.10;73.00
68215;DHT22;55036;52.138;5.236;2022-08-21T02:01:06;16.10;73.00
68215;DHT22;55036;52.138;5.236;2022-08-21T02:03:33;16.10;73.10
68215;DHT22;55036;52.138;5.236;2022-08-21T02:06:03;16.10;73.00
68215;DHT22;55036;52.138;5.236;2022-08-21T02:08:30;16.10;73.20
68215;DHT22;55036;52.138;5.236;2022-08-21T02:10:57;16.10;73.20
68215;DHT22;55036;52.138;5.236;2022-08-21T02:13:24;16.00;73.20
68215;DHT22;55036;52.138;5.236;2022-08-21T02:15:51;16.00;73.30
68215;DHT22;55036;52.138;5.236;2022-08-21T02:18:18;16.00;73.40
68215;DHT22;55036;52.138;5.236;2022-08-21T02:20:47;16.00;73.40
68215;DHT22;55036;52.138;5.236;2022-08-21T02:23:21;16.00;73.40
68215;DHT22;55036;52.138;5.236;2022-08-21T02:25:53;15.90;73.40
68215;DHT22;55036;52.138;5.236;2022-08-21T02:28:20;16.00;73.50
68215;DHT22;55036;52.138;5.236;2022-08-21T02:30:48;15.90;73.70
68215;DHT22;55036;52.138;5.236;2022-08-21T02:33:16;15.90;73.60
68215;DHT22;55036;52.138;5.236;2022-08-21T02:35:44;15.90;73.60
68215;DHT22;55036;52.138;5.236;2022-08-21T02:38:17;15.90;73.60
68215;DHT22;55036;52.138;5.236;2022-08-21T02:40:47;15.90;73.70
68215;DHT22;55036;52.138;5.236;2022-08-21T02:43:17;15.90;73.80
68215;DHT22;55036;52.138;5.236;2022-08-21T02:45:45;15.90;73.90
68215;DHT22;55036;52.138;5.236;2022-08-21T02:48:16;15.90;73.90
68215;DHT22;55036;52.138;5.236;2022-08-21T02:50:51;15.90;73.90
68215;DHT22;55036;52.138;5.236;2022-08-21T02:53:18;15.90;73.90
68215;DHT22;55036;52.138;5.236;2022-08-21T02:55:48;15.80;74.00
68215;DHT22;55036;52.138;5.236;2022-08-21T02:58:24;15.90;74.00
68215;DHT22;55036;52.138;5.236;2022-08-21T03:00:51;15.90;74.00
68215;DHT22;55036;52.138;5.236;2022-08-21T03:03:18;15.90;74.10
68215;DHT22;55036;52.138;5.236;2022-08-21T03:05:47;15.90;74.10
68215;DHT22;55036;52.138;5.236;2022-08-21T03:08:15;15.80;74.00
68215;DHT22;55036;52.138;5.236;2022-08-21T03:10:47;15.80;74.10
68215;DHT22;55036;52.138;5.236;2022-08-21T03:13:16;15.80;74.20
68215;DHT22;55036;52.138;5.236;2022-08-21T03:15:44;15.80;74.10
68215;DHT22;55036;52.138;5.236;2022-08-21T03:18:11;15.80;74.20
68215;DHT22;55036;52.138;5.236;2022-08-21T03:20:39;15.80;74.20
68215;DHT22;55036;52.138;5.236;2022-08-21T03:23:07;15.80;74.30
68215;DHT22;55036;52.138;5.236;2022-08-21T03:25:40;15.80;74.20
68215;DHT22;55036;52.138;5.236;2022-08-21T03:28:11;15.80;74.30
68215;DHT22;55036;52.138;5.236;2022-08-21T03:30:43;15.70;74.10
68215;DHT22;55036;52.138;5.236;2022-08-21T03:33:10;15.70;74.10
68215;DHT22;55036;52.138;5.236;2022-08-21T03:35:41;15.70;74.50
68215;DHT22;55036;52.138;5.236;2022-08-21T03:38:09;15.70;74.50
68215;DHT22;55036;52.138;5.236;2022-08-21T03:40:36;15.70;74.50
68215;DHT22;55036;52.138;5.236;2022-08-21T03:43:03;15.60;74.50
68215;DHT22;55036;52.138;5.236;2022-08-21T03:45:29;15.60;74.50
68215;DHT22;55036;52.138;5.236;2022-08-21T03:48:02;15.60;74.40
68215;DHT22;55036;52.138;5.236;2022-08-21T03:50:32;15.60;74.20
68215;DHT22;55036;52.138;5.236;2022-08-21T03:53:07;15.50;74.30
68215;DHT22;55036;52.138;5.236;2022-08-21T03:55:45;15.50;74.40
68215;DHT22;55036;52.138;5.236;2022-08-21T03:58:14;15.40;74.30
68215;DHT22;55036;52.138;5.236;2022-08-21T04:00:44;15.50;74.60
68215;DHT22;55036;52.138;5.236;2022-08-21T04:03:11;15.50;74.70
68215;DHT22;55036;52.138;5.236;2022-08-21T04:05:38;15.40;74.60
68215;DHT22;55036;52.138;5.236;2022-08-21T04:08:05;15.40;74.60
68215;DHT22;55036;52.138;5.236;2022-08-21T04:10:35;15.40;74.70
68215;DHT22;55036;52.138;5.236;2022-08-21T04:13:04;15.40;74.60
68215;DHT22;55036;52.138;5.236;2022-08-21T04:15:31;15.40;74.50
68215;DHT22;55036;52.138;5.236;2022-08-21T04:17:57;15.30;74.70
68215;DHT22;55036;52.138;5.236;2022-08-21T04:20:25;15.40;74.80
68215;DHT22;55036;52.138;5.236;2022-08-21T04:22:53;15.40;74.90
68215;DHT22;55036;52.138;5.236;2022-08-21T04:25:21;15.40;75.00
68215;DHT22;55036;52.138;5.236;2022-08-21T04:27:48;15.40;74.90
68215;DHT22;55036;52.138;5.236;2022-08-21T04:30:16;15.40;75.00
68215;DHT22;55036;52.138;5.236;2022-08-21T04:32:48;15.40;74.90
68215;DHT22;55036;52.138;5.236;2022-08-21T04:35:17;15.40;74.90
68215;DHT22;55036;52.138;5.236;2022-08-21T04:37:44;15.40;74.80
68215;DHT22;55036;52.138;5.236;2022-08-21T04:40:13;15.40;75.00
68215;DHT22;55036;52.138;5.236;2022-08-21T04:42:46;15.40;75.00
68215;DHT22;55036;52.138;5.236;2022-08-21T04:47:43;15.30;75.00
68215;DHT22;55036;52.138;5.236;2022-08-21T04:50:22;15.40;75.10
68215;DHT22;55036;52.138;5.236;2022-08-21T04:52:50;15.40;75.10
68215;DHT22;55036;52.138;5.236;2022-08-21T04:55:18;15.40;75.30
68215;DHT22;55036;52.138;5.236;2022-08-21T04:57:45;15.50;75.40
68215;DHT22;55036;52.138;5.236;2022-08-21T05:00:16;15.50;75.40
68215;DHT22;55036;52.138;5.236;2022-08-21T05:02:45;15.50;75.40
68215;DHT22;55036;52.138;5.236;2022-08-21T05:05:15;15.50;75.40
68215;DHT22;55036;52.138;5.236;2022-08-21T05:07:42;15.60;75.60
68215;DHT22;55036;52.138;5.236;2022-08-21T05:10:10;15.60;75.50
68215;DHT22;55036;52.138;5.236;2022-08-21T05:12:40;15.60;75.50
68215;DHT22;55036;52.138;5.236;2022-08-21T05:15:09;15.60;75.50
68215;DHT22;55036;52.138;5.236;2022-08-21T05:17:40;15.70;75.50
68215;DHT22;55036;52.138;5.236;2022-08-21T05:20:10;15.70;75.30
68215;DHT22;55036;52.138;5.236;2022-08-21T05:22:38;15.70;75.40
68215;DHT22;55036;52.138;5.236;2022-08-21T05:25:06;15.90;75.90
68215;DHT22;55036;52.138;5.236;2022-08-21T05:27:37;16.20;76.20
68215;DHT22;55036;52.138;5.236;2022-08-21T05:30:06;16.80;75.60
68215;DHT22;55036;52.138;5.236;2022-08-21T05:32:34;17.20;74.40
68215;DHT22;55036;52.138;5.236;2022-08-21T05:35:03;17.50;73.60
68215;DHT22;55036;52.138;5.236;2022-08-21T05:37:30;17.50;73.20
68215;DHT22;55036;52.138;5.236;2022-08-21T05:39:57;17.50;73.40
68215;DHT22;55036;52.138;5.236;2022-08-21T05:42:44;17.50;73.60
68215;DHT22;55036;52.138;5.236;2022-08-21T05:45:20;17.60;74.40
68215;DHT22;55036;52.138;5.236;2022-08-21T05:48:09;17.60;73.50
68215;DHT22;55036;52.138;5.236;2022-08-21T05:50:36;17.70;73.40
68215;DHT22;55036;52.138;5.236;2022-08-21T05:53:05;17.80;73.20
68215;DHT22;55036;52.138;5.236;2022-08-21T05:55:33;17.90;73.00
68215;DHT22;55036;52.138;5.236;2022-08-21T05:58:00;18.10;73.20
68215;DHT22;55036;52.138;5.236;2022-08-21T06:00:27;18.60;72.70
68215;DHT22;55036;52.138;5.236;2022-08-21T06:02:54;19.10;71.60
68215;DHT22;55036;52.138;5.236;2022-08-21T06:05:21;19.40;71.80
68215;DHT22;55036;52.138;5.236;2022-08-21T06:08:03;19.90;70.20
68215;DHT22;55036;52.138;5.236;2022-08-21T06:10:30;20.60;69.30
68215;DHT22;55036;52.138;5.236;2022-08-21T06:12:57;21.10;67.90
68215;DHT22;55036;52.138;5.236;2022-08-21T06:15:24;21.20;67.40
68215;DHT22;55036;52.138;5.236;2022-08-21T06:17:53;21.20;66.90
68215;DHT22;55036;52.138;5.236;2022-08-21T06:20:20;21.30;66.30
68215;DHT22;55036;52.138;5.236;2022-08-21T06:22:47;21.20;66.50
68215;DHT22;55036;52.138;5.236;2022-08-21T06:25:13;21.20;66.50
68215;DHT22;55036;52.138;5.236;2022-08-21T06:27:40;21.10;66.40
68215;DHT22;55036;52.138;5.236;2022-08-21T06:30:07;21.00;65.70
68215;DHT22;55036;52.138;5.236;2022-08-21T06:32:35;20.90;66.70
68215;DHT22;55036;52.138;5.236;2022-08-21T06:35:03;20.80;66.70
68215;DHT22;55036;52.138;5.236;2022-08-21T06:37:30;20.70;66.20
68215;DHT22;55036;52.138;5.236;2022-08-21T06:39:57;20.60;66.50
68215;DHT22;55036;52.138;5.236;2022-08-21T06:42:25;20.40;67.20
68215;DHT22;55036;52.138;5.236;2022-08-21T06:44:54;20.40;67.20
68215;DHT22;55036;52.138;5.236;2022-08-21T06:47:20;20.40;67.10
68215;DHT22;55036;52.138;5.236;2022-08-21T06:49:47;20.50;67.10
68215;DHT22;55036;52.138;5.236;2022-08-21T06:52:15;20.60;67.10
68215;DHT22;55036;52.138;5.236;2022-08-21T06:54:42;20.60;67.30
68215;DHT22;55036;52.138;5.236;2022-08-21T06:57:09;20.70;67.60
68215;DHT22;55036;52.138;5.236;2022-08-21T06:59:36;20.70;67.50
68215;DHT22;55036;52.138;5.236;2022-08-21T07:02:03;20.80;67.70
68215;DHT22;55036;52.138;5.236;2022-08-21T07:04:30;20.80;68.20
68215;DHT22;55036;52.138;5.236;2022-08-21T07:06:56;20.80;68.10
68215;DHT22;55036;52.138;5.236;2022-08-21T07:09:23;20.90;67.70
68215;DHT22;55036;52.138;5.236;2022-08-21T07:11:53;20.90;68.00
68215;DHT22;55036;52.138;5.236;2022-08-21T07:14:20;21.00;67.50
68215;DHT22;55036;52.138;5.236;2022-08-21T07:16:48;20.90;68.30
68215;DHT22;55036;52.138;5.236;2022-08-21T07:19:15;21.00;67.80
68215;DHT22;55036;52.138;5.236;2022-08-21T07:21:42;21.10;68.00
68215;DHT22;55036;52.138;5.236;2022-08-21T07:24:09;21.10;68.30
68215;DHT22;55036;52.138;5.236;2022-08-21T07:26:36;21.20;68.20
68215;DHT22;55036;52.138;5.236;2022-08-21T07:29:03;21.30;68.20
68215;DHT22;55036;52.138;5.236;2022-08-21T07:31:30;21.40;67.80
68215;DHT22;55036;52.138;5.236;2022-08-21T07:33:58;21.50;67.90
68215;DHT22;55036;52.138;5.236;2022-08-21T07:36:25;21.50;68.10
68215;DHT22;55036;52.138;5.236;2022-08-21T07:38:52;21.60;68.10
68215;DHT22;55036;52.138;5.236;2022-08-21T07:41:23;21.70;68.10
68215;DHT22;55036;52.138;5.236;2022-08-21T07:43:50;21.70;68.10
68215;DHT22;55036;52.138;5.236;2022-08-21T07:46:18;21.80;67.90
68215;DHT22;55036;52.138;5.236;2022-08-21T07:48:46;21.80;68.20
68215;DHT22;55036;52.138;5.236;2022-08-21T07:51:14;22.00;68.30
68215;DHT22;55036;52.138;5.236;2022-08-21T07:53:41;22.00;67.30
68215;DHT22;55036;52.138;5.236;2022-08-21T07:56:09;22.00;67.40
68215;DHT22;55036;52.138;5.236;2022-08-21T07:58:37;22.10;67.20
68215;DHT22;55036;52.138;5.236;2022-08-21T08:01:06;22.20;67.10
68215;DHT22;55036;52.138;5.236;2022-08-21T08:03:33;22.30;67.00
68215;DHT22;55036;52.138;5.236;2022-08-21T08:06:00;22.40;66.80
68215;DHT22;55036;52.138;5.236;2022-08-21T08:08:27;22.40;67.20
68215;DHT22;55036;52.138;5.236;2022-08-21T08:10:56;22.50;66.70
68215;DHT22;55036;52.138;5.236;2022-08-21T08:13:24;22.50;66.30
68215;DHT22;55036;52.138;5.236;2022-08-21T08:15:51;22.60;66.50
68215;DHT22;55036;52.138;5.236;2022-08-21T08:18:18;22.70;67.60
68215;DHT22;55036;52.138;5.236;2022-08-21T08:20:45;22.80;65.90
68215;DHT22;55036;52.138;5.236;2022-08-21T08:23:13;22.90;65.70
68215;DHT22;55036;52.138;5.236;2022-08-21T08:25:40;23.00;65.60
68215;DHT22;55036;52.138;5.236;2022-08-21T08:28:07;23.10;65.60
68215;DHT22;55036;52.138;5.236;2022-08-21T08:30:46;22.90;65.20
68215;DHT22;55036;52.138;5.236;2022-08-21T08:33:14;23.00;66.40
68215;DHT22;55036;52.138;5.236;2022-08-21T08:35:44;23.10;65.90
68215;DHT22;55036;52.138;5.236;2022-08-21T08:38:11;23.30;65.10
68215;DHT22;55036;52.138;5.236;2022-08-21T08:43:18;23.40;64.30
68215;DHT22;55036;52.138;5.236;2022-08-21T08:45:49;23.50;63.70
68215;DHT22;55036;52.138;5.236;2022-08-21T08:48:41;23.70;64.00
68215;DHT22;55036;52.138;5.236;2022-08-21T08:51:20;23.80;63.30
68215;DHT22;55036;52.138;5.236;2022-08-21T08:53:52;23.70;62.80
68215;DHT22;55036;52.138;5.236;2022-08-21T08:56:28;23.50;63.60
68215;DHT22;55036;52.138;5.236;2022-08-21T08:59:01;23.60;63.40
68215;DHT22;55036;52.138;5.236;2022-08-21T09:01:29;23.80;63.40
68215;DHT22;55036;52.138;5.236;2022-08-21T09:04:01;24.00;63.20
68215;DHT22;55036;52.138;5.236;2022-08-21T09:06:39;23.90;62.00
68215;DHT22;55036;52.138;5.236;2022-08-21T09:12:09;23.80;62.20
68215;DHT22;55036;52.138;5.236;2022-08-21T09:15:15;23.90;62.10
68215;DHT22;55036;52.138;5.236;2022-08-21T09:26:18;23.50;62.60
68215;DHT22;55036;52.138;5.236;2022-08-21T09:28:54;23.50;62.60
68215;DHT22;55036;52.138;5.236;2022-08-21T09:31:30;23.70;62.10
68215;DHT22;55036;52.138;5.236;2022-08-21T09:34:05;23.80;62.30
68215;DHT22;55036;52.138;5.236;2022-08-21T09:39:07;24.00;60.70
68215;DHT22;55036;52.138;5.236;2022-08-21T09:41:35;23.90;60.80
68215;DHT22;55036;52.138;5.236;2022-08-21T09:44:05;23.80;60.70
68215;DHT22;55036;52.138;5.236;2022-08-21T09:46:32;23.60;61.20
68215;DHT22;55036;52.138;5.236;2022-08-21T09:49:02;23.70;61.40
68215;DHT22;55036;52.138;5.236;2022-08-21T09:51:36;23.80;61.00
68215;DHT22;55036;52.138;5.236;2022-08-21T09:56:38;23.60;61.00
68215;DHT22;55036;52.138;5.236;2022-08-21T09:59:28;23.50;61.50
68215;DHT22;55036;52.138;5.236;2022-08-21T10:02:27;23.40;60.80
68215;DHT22;55036;52.138;5.236;2022-08-21T10:07:26;23.40;60.70
68215;DHT22;55036;52.138;5.236;2022-08-21T10:12:45;23.40;61.20
68215;DHT22;55036;52.138;5.236;2022-08-21T10:18:13;23.80;60.00
68215;DHT22;55036;52.138;5.236;2022-08-21T10:29:12;24.80;57.10
68215;DHT22;55036;52.138;5.236;2022-08-21T10:43:00;25.40;56.10
68215;DHT22;55036;52.138;5.236;2022-08-21T10:48:06;25.70;54.90
68215;DHT22;55036;52.138;5.236;2022-08-21T10:50:43;25.60;54.50
68215;DHT22;55036;52.138;5.236;2022-08-21T10:56:21;25.60;54.70
68215;DHT22;55036;52.138;5.236;2022-08-21T10:59:00;25.80;54.20
68215;DHT22;55036;52.138;5.236;2022-08-21T11:01:36;25.60;53.80
68215;DHT22;55036;52.138;5.236;2022-08-21T11:07:55;25.50;52.10
68215;DHT22;55036;52.138;5.236;2022-08-21T11:10:40;25.10;52.30
68215;DHT22;55036;52.138;5.236;2022-08-21T11:14:01;25.00;53.40
68215;DHT22;55036;52.138;5.236;2022-08-21T11:16:49;24.90;53.50
68215;DHT22;55036;52.138;5.236;2022-08-21T11:19:21;25.00;52.80
68215;DHT22;55036;52.138;5.236;2022-08-21T11:21:53;25.20;54.10
68215;DHT22;55036;52.138;5.236;2022-08-21T11:27:28;25.10;53.70
68215;DHT22;55036;52.138;5.236;2022-08-21T11:29:55;25.10;53.70
68215;DHT22;55036;52.138;5.236;2022-08-21T11:40:47;24.80;54.50
68215;DHT22;55036;52.138;5.236;2022-08-21T11:43:40;24.70;54.70
68215;DHT22;55036;52.138;5.236;2022-08-21T11:46:39;24.80;55.50
68215;DHT22;55036;52.138;5.236;2022-08-21T12:00:38;25.80;53.00
68215;DHT22;55036;52.138;5.236;2022-08-21T12:03:14;25.80;52.50
68215;DHT22;55036;52.138;5.236;2022-08-21T12:05:57;25.90;52.20
68215;DHT22;55036;52.138;5.236;2022-08-21T12:08:30;26.00;51.00
68215;DHT22;55036;52.138;5.236;2022-08-21T12:16:36;26.10;51.20
68215;DHT22;55036;52.138;5.236;2022-08-21T12:21:51;26.50;48.40
68215;DHT22;55036;52.138;5.236;2022-08-21T12:24:34;26.50;48.50
68215;DHT22;55036;52.138;5.236;2022-08-21T12:29:51;26.40;47.50
68215;DHT22;55036;52.138;5.236;2022-08-21T12:32:24;26.30;48.00
68215;DHT22;55036;52.138;5.236;2022-08-21T12:37:50;26.20;51.10
68215;DHT22;55036;52.138;5.236;2022-08-21T12:40:23;26.20;49.80
68215;DHT22;55036;52.138;5.236;2022-08-21T12:42:53;26.00;50.90
68215;DHT22;55036;52.138;5.236;2022-08-21T12:45:42;25.90;50.40
68215;DHT22;55036;52.138;5.236;2022-08-21T12:48:26;25.80;50.60
68215;DHT22;55036;52.138;5.236;2022-08-21T12:50:57;25.70;50.80
68215;DHT22;55036;52.138;5.236;2022-08-21T12:53:31;25.80;51.70
68215;DHT22;55036;52.138;5.236;2022-08-21T12:56:09;26.10;51.30
68215;DHT22;55036;52.138;5.236;2022-08-21T12:58:40;26.30;50.60
68215;DHT22;55036;52.138;5.236;2022-08-21T13:01:47;26.40;50.20
68215;DHT22;55036;52.138;5.236;2022-08-21T13:04:13;26.60;49.80
68215;DHT22;55036;52.138;5.236;2022-08-21T13:06:45;26.70;50.00
68215;DHT22;55036;52.138;5.236;2022-08-21T13:09:16;26.70;48.80
68215;DHT22;55036;52.138;5.236;2022-08-21T13:11:46;26.50;47.60
68215;DHT22;55036;52.138;5.236;2022-08-21T13:14:38;26.20;48.10
68215;DHT22;55036;52.138;5.236;2022-08-21T13:17:12;25.90;49.00
68215;DHT22;55036;52.138;5.236;2022-08-21T13:20:00;25.80;49.90
68215;DHT22;55036;52.138;5.236;2022-08-21T13:22:28;26.10;50.10
68215;DHT22;55036;52.138;5.236;2022-08-21T13:25:01;26.20;49.60
68215;DHT22;55036;52.138;5.236;2022-08-21T13:27:32;26.10;49.60
68215;DHT22;55036;52.138;5.236;2022-08-21T13:30:11;26.10;49.60
68215;DHT22;55036;52.138;5.236;2022-08-21T13:32:44;26.00;49.60
68215;DHT22;55036;52.138;5.236;2022-08-21T13:35:27;25.80;49.70
68215;DHT22;55036;52.138;5.236;2022-08-21T13:37:55;25.70;49.90
68215;DHT22;55036;52.138;5.236;2022-08-21T13:40:26;25.70;50.80
68215;DHT22;55036;52.138;5.236;2022-08-21T13:42:54;25.60;51.00
68215;DHT22;55036;52.138;5.236;2022-08-21T13:45:30;25.70;51.40
68215;DHT22;55036;52.138;5.236;2022-08-21T13:47:59;25.80;51.80
68215;DHT22;55036;52.138;5.236;2022-08-21T13:50:34;26.00;51.10
68215;DHT22;55036;52.138;5.236;2022-08-21T13:53:04;26.00;51.00
68215;DHT22;55036;52.138;5.236;2022-08-21T13:55:42;25.80;50.80
68215;DHT22;55036;52.138;5.236;2022-08-21T13:58:11;26.00;50.80
68215;DHT22;55036;52.138;5.236;2022-08-21T14:00:47;26.20;50.90
68215;DHT22;55036;52.138;5.236;2022-08-21T14:03:35;26.40;49.50
68215;DHT22;55036;52.138;5.236;2022-08-21T14:06:21;26.20;49.90
68215;DHT22;55036;52.138;5.236;2022-08-21T14:09:01;26.20;50.10
68215;DHT22;55036;52.138;5.236;2022-08-21T14:11:35;26.10;50.70
68215;DHT22;55036;52.138;5.236;2022-08-21T14:14:06;25.90;50.00
68215;DHT22;55036;52.138;5.236;2022-08-21T14:16:52;25.80;50.30
68215;DHT22;55036;52.138;5.236;2022-08-21T14:19:23;25.70;50.20
68215;DHT22;55036;52.138;5.236;2022-08-21T14:21:50;25.70;50.00
68215;DHT22;55036;52.138;5.236;2022-08-21T14:26:53;25.50;50.00
68215;DHT22;55036;52.138;5.236;2022-08-21T14:29:26;25.50;50.20
68215;DHT22;55036;52.138;5.236;2022-08-21T14:31:59;25.30;50.50
68215;DHT22;55036;52.138;5.236;2022-08-21T14:34:51;25.40;50.60
68215;DHT22;55036;52.138;5.236;2022-08-21T14:37:20;25.30;51.20
68215;DHT22;55036;52.138;5.236;2022-08-21T14:39:47;25.20;51.30
68215;DHT22;55036;52.138;5.236;2022-08-21T14:42:14;25.10;51.60
68215;DHT22;55036;52.138;5.236;2022-08-21T14:44:41;25.10;51.60
68215;DHT22;55036;52.138;5.236;2022-08-21T14:47:08;25.10;51.70
68215;DHT22;55036;52.138;5.236;2022-08-21T14:49:35;25.10;51.90
68215;DHT22;55036;52.138;5.236;2022-08-21T14:52:03;25.10;51.70
68215;DHT22;55036;52.138;5.236;2022-08-21T14:54:31;25.10;51.60
68215;DHT22;55036;52.138;5.236;2022-08-21T14:57:07;25.00;51.00
68215;DHT22;55036;52.138;5.236;2022-08-21T14:59:35;25.00;51.50
68215;DHT22;55036;52.138;5.236;2022-08-21T15:02:02;25.00;51.40
68215;DHT22;55036;52.138;5.236;2022-08-21T15:04:33;25.00;51.50
68215;DHT22;55036;52.138;5.236;2022-08-21T15:07:01;24.90;51.50
68215;DHT22;55036;52.138;5.236;2022-08-21T15:09:28;24.70;51.20
68215;DHT22;55036;52.138;5.236;2022-08-21T15:11:57;24.60;51.40
68215;DHT22;55036;52.138;5.236;2022-08-21T15:14:27;24.60;51.70
68215;DHT22;55036;52.138;5.236;2022-08-21T15:16:54;24.50;51.30
68215;DHT22;55036;52.138;5.236;2022-08-21T15:19:21;24.50;51.50
68215;DHT22;55036;52.138;5.236;2022-08-21T15:21:48;24.60;51.60
68215;DHT22;55036;52.138;5.236;2022-08-21T15:24:15;24.50;51.60
68215;DHT22;55036;52.138;5.236;2022-08-21T15:26:43;24.40;51.80
68215;DHT22;55036;52.138;5.236;2022-08-21T15:29:10;24.40;52.00
68215;DHT22;55036;52.138;5.236;2022-08-21T15:32:15;24.40;52.30
68215;DHT22;55036;52.138;5.236;2022-08-21T15:34:35;24.50;52.40
68215;DHT22;55036;52.138;5.236;2022-08-21T15:37:03;24.40;52.20
68215;DHT22;55036;52.138;5.236;2022-08-21T15:39:31;24.40;52.30
68215;DHT22;55036;52.138;5.236;2022-08-21T15:42:03;24.50;52.50
68215;DHT22;55036;52.138;5.236;2022-08-21T15:44:37;24.40;52.50
68215;DHT22;55036;52.138;5.236;2022-08-21T15:47:06;24.40;53.10
68215;DHT22;55036;52.138;5.236;2022-08-21T15:49:32;24.30;53.40
68215;DHT22;55036;52.138;5.236;2022-08-21T15:51:59;24.30;53.10
68215;DHT22;55036;52.138;5.236;2022-08-21T15:54:26;24.20;53.30
68215;DHT22;55036;52.138;5.236;2022-08-21T15:56:52;24.30;53.40
68215;DHT22;55036;52.138;5.236;2022-08-21T15:59:21;24.30;53.50
68215;DHT22;55036;52.138;5.236;2022-08-21T16:01:49;24.30;53.70
68215;DHT22;55036;52.138;5.236;2022-08-21T16:04:25;24.30;54.00
68215;DHT22;55036;52.138;5.236;2022-08-21T16:06:52;24.20;54.00
68215;DHT22;55036;52.138;5.236;2022-08-21T16:09:27;24.20;54.00
68215;DHT22;55036;52.138;5.236;2022-08-21T16:11:54;24.20;54.00
68215;DHT22;55036;52.138;5.236;2022-08-21T16:14:21;24.20;53.90
68215;DHT22;55036;52.138;5.236;2022-08-21T16:16:47;24.10;53.90
68215;DHT22;55036;52.138;5.236;2022-08-21T16:19:14;24.20;54.00
68215;DHT22;55036;52.138;5.236;2022-08-21T16:21:41;24.20;54.10
68215;DHT22;55036;52.138;5.236;2022-08-21T16:24:08;24.30;54.00
68215;DHT22;55036;52.138;5.236;2022-08-21T16:26:35;24.30;53.90
68215;DHT22;55036;52.138;5.236;2022-08-21T16:29:02;24.30;54.10
68215;DHT22;55036;52.138;5.236;2022-08-21T16:31:30;24.30;53.80
68215;DHT22;55036;52.138;5.236;2022-08-21T16:33:57;24.20;53.70
68215;DHT22;55036;52.138;5.236;2022-08-21T16:36:25;24.20;54.00
68215;DHT22;55036;52.138;5.236;2022-08-21T16:38:53;24.20;54.30
68215;DHT22;55036;52.138;5.236;2022-08-21T16:41:22;24.30;54.00
68215;DHT22;55036;52.138;5.236;2022-08-21T16:43:50;24.20;53.80
68215;DHT22;55036;52.138;5.236;2022-08-21T16:46:17;24.20;53.70
68215;DHT22;55036;52.138;5.236;2022-08-21T16:48:46;24.30;53.60
68215;DHT22;55036;52.138;5.236;2022-08-21T16:51:13;24.30;53.50
68215;DHT22;55036;52.138;5.236;2022-08-21T16:53:41;24.30;53.40
68215;DHT22;55036;52.138;5.236;2022-08-21T16:56:09;24.40;53.40
68215;DHT22;55036;52.138;5.236;2022-08-21T16:58:39;24.30;53.30
68215;DHT22;55036;52.138;5.236;2022-08-21T17:01:12;24.30;53.30
68215;DHT22;55036;52.138;5.236;2022-08-21T17:03:45;24.30;53.20
68215;DHT22;55036;52.138;5.236;2022-08-21T17:06:13;24.10;53.40
68215;DHT22;55036;52.138;5.236;2022-08-21T17:08:40;24.10;53.60
68215;DHT22;55036;52.138;5.236;2022-08-21T17:11:10;24.10;53.70
68215;DHT22;55036;52.138;5.236;2022-08-21T17:14:02;24.00;53.80
68215;DHT22;55036;52.138;5.236;2022-08-21T17:16:30;24.00;53.80
68215;DHT22;55036;52.138;5.236;2022-08-21T17:18:57;24.00;53.90
68215;DHT22;55036;52.138;5.236;2022-08-21T17:21:24;24.00;53.80
68215;DHT22;55036;52.138;5.236;2022-08-21T17:23:51;23.90;53.90
68215;DHT22;55036;52.138;5.236;2022-08-21T17:26:18;23.90;54.10
68215;DHT22;55036;52.138;5.236;2022-08-21T17:28:46;23.90;54.00
68215;DHT22;55036;52.138;5.236;2022-08-21T17:31:14;23.90;54.20
68215;DHT22;55036;52.138;5.236;2022-08-21T17:33:43;23.80;54.10